Time;durP1;ratioP1;P1;durP2;ratioP2;P2;SDS_P1;SDS_P2;PMS_P1;PMS_P2;Temp;Humidity;BMP_temperature;BMP_pressure;BME280_temperature;BME280_humidity;BME280_pressure;Samples;Min_cycle;Max_cycle;Signal;HPM_P1;HPM_P2
2023/04/07 00:00:08;;;;;;;37.40;21.35;;;7.00;99.90;;;;;;5019162;28;20128;-81
2023/04/07 00:02:33;;;;;;;34.72;20.42;;;7.00;99.90;;;;;;5036943;28;20034;-82
2023/04/07 00:04:59;;;;;;;35.20;21.17;;;7.00;99.90;;;;;;5019105;28;20469;-82
2023/04/07 00:07:25;;;;;;;38.60;21.75;;;7.10;99.90;;;;;;5019263;28;20121;-82
2023/04/07 00:09:50;;;;;;;38.10;20.95;;;7.00;99.90;;;;;;5036734;28;20070;-82
2023/04/07 00:12:16;;;;;;;34.85;20.38;;;6.90;99.90;;;;;;5036781;28;20046;-82
2023/04/07 00:14:41;;;;;;;38.97;21.02;;;7.00;99.90;;;;;;5036612;28;20053;-82
2023/04/07 00:17:07;;;;;;;38.30;21.17;;;6.90;99.90;;;;;;5018891;28;20046;-82
2023/04/07 00:19:33;;;;;;;37.50;22.17;;;6.90;99.90;;;;;;5036545;28;20171;-82
2023/04/07 00:21:59;;;;;;;37.60;22.08;;;7.00;99.90;;;;;;5036567;28;20401;-82
2023/04/07 00:24:24;;;;;;;41.20;23.83;;;6.90;99.90;;;;;;5018836;28;20159;-82
2023/04/07 00:26:50;;;;;;;43.90;23.35;;;6.90;99.90;;;;;;5018756;28;20041;-82
2023/04/07 00:29:16;;;;;;;36.83;21.23;;;6.90;99.90;;;;;;5018636;28;20045;-81
2023/04/07 00:31:41;;;;;;;40.28;23.63;;;6.80;99.90;;;;;;5018481;28;20132;-81
2023/04/07 00:34:07;;;;;;;40.97;22.95;;;7.00;99.90;;;;;;5036307;28;20049;-82
2023/04/07 00:36:32;;;;;;;44.65;22.40;;;6.80;99.90;;;;;;5036452;28;20041;-82
2023/04/07 00:38:58;;;;;;;45.53;25.08;;;6.90;99.90;;;;;;5036260;28;20523;-81
2023/04/07 00:41:24;;;;;;;45.83;25.13;;;7.00;99.90;;;;;;5018598;28;20484;-82
2023/04/07 00:43:50;;;;;;;48.38;26.58;;;6.90;99.90;;;;;;5036101;28;20049;-81
2023/04/07 00:46:18;;;;;;;46.55;26.08;;;6.90;99.90;;;;;;5036210;28;20037;-81
2023/04/07 00:48:44;;;;;;;46.13;24.27;;;6.80;99.90;;;;;;5036052;28;20053;-82
2023/04/07 00:51:10;;;;;;;46.97;25.23;;;6.90;99.90;;;;;;5035789;28;20060;-81
2023/04/07 00:53:36;;;;;;;44.58;24.98;;;6.90;99.90;;;;;;5035952;28;20056;-82
2023/04/07 00:56:02;;;;;;;45.30;25.73;;;6.90;99.90;;;;;;5018256;28;20095;-82
2023/04/07 00:58:28;;;;;;;52.33;26.02;;;6.90;99.90;;;;;;5035828;28;20049;-82
2023/04/07 01:01:03;;;;;;;43.20;24.58;;;6.90;99.90;;;;;;5035845;28;20045;-82
2023/04/07 01:03:51;;;;;;;45.95;26.40;;;7.00;99.90;;;;;;5018112;28;20049;-82
2023/04/07 01:06:20;;;;;;;44.90;26.35;;;6.90;99.90;;;;;;5017809;28;20444;-82
2023/04/07 01:08:54;;;;;;;51.28;26.55;;;6.90;99.90;;;;;;5035839;28;20042;-82
2023/04/07 01:11:29;;;;;;;50.22;25.98;;;6.80;99.90;;;;;;5017914;28;20072;-82
2023/04/07 01:13:57;;;;;;;47.00;25.42;;;7.00;99.90;;;;;;5018161;28;20502;-82
2023/04/07 01:16:30;;;;;;;50.53;25.77;;;7.00;99.90;;;;;;5035608;28;20048;-81
2023/04/07 01:19:21;;;;;;;51.25;29.25;;;6.90;99.90;;;;;;5036133;28;20049;-82
2023/04/07 01:21:51;;;;;;;47.53;24.63;;;6.90;99.90;;;;;;4996712;28;20049;-82
2023/04/07 01:24:51;;;;;;;48.58;25.42;;;7.00;99.90;;;;;;5017767;28;20055;-82
2023/04/07 01:27:33;;;;;;;49.58;27.13;;;7.00;99.90;;;;;;5017874;28;20444;-82
2023/04/07 01:30:02;;;;;;;52.00;26.30;;;7.00;99.90;;;;;;5017448;28;20540;-81
2023/04/07 01:32:30;;;;;;;48.88;26.25;;;7.00;99.90;;;;;;5017717;28;20056;-82
2023/04/07 01:34:57;;;;;;;49.08;23.23;;;6.90;99.90;;;;;;5035277;28;20041;-81
2023/04/07 01:37:25;;;;;;;50.03;25.30;;;7.00;99.90;;;;;;5017533;28;20484;-81
2023/04/07 01:39:52;;;;;;;53.78;27.70;;;7.00;99.90;;;;;;5017434;28;20045;-81
2023/04/07 01:42:19;;;;;;;55.38;27.10;;;7.00;99.90;;;;;;5017449;28;20099;-82
2023/04/07 01:44:45;;;;;;;48.85;26.00;;;7.00;99.90;;;;;;5017409;28;20128;-81
2023/04/07 01:47:12;;;;;;;55.58;27.05;;;7.00;99.90;;;;;;5017439;28;20085;-81
2023/04/07 01:49:39;;;;;;;57.97;27.50;;;7.00;99.90;;;;;;5016978;28;20046;-81
2023/04/07 01:52:09;;;;;;;52.50;27.08;;;7.00;99.90;;;;;;5017144;28;20447;-81
2023/04/07 01:54:38;;;;;;;50.35;26.67;;;6.90;99.90;;;;;;5016876;28;20092;-81
2023/04/07 01:57:04;;;;;;;55.67;28.13;;;7.00;99.90;;;;;;5016941;28;20133;-81
2023/04/07 01:59:30;;;;;;;56.78;29.45;;;7.00;99.90;;;;;;5017505;28;20120;-81
2023/04/07 02:01:55;;;;;;;56.05;28.30;;;6.90;99.90;;;;;;5034709;28;20489;-82
2023/04/07 02:04:25;;;;;;;49.25;25.48;;;7.00;99.90;;;;;;5034707;28;20053;-82
2023/04/07 02:06:53;;;;;;;56.60;28.67;;;6.90;99.90;;;;;;5016681;28;20478;-81
2023/04/07 02:09:22;;;;;;;50.90;26.27;;;6.90;99.90;;;;;;5034405;28;20551;-82
2023/04/07 02:11:49;;;;;;;52.40;26.85;;;7.00;99.90;;;;;;5034421;28;20052;-82
2023/04/07 02:14:16;;;;;;;54.45;27.65;;;7.00;99.90;;;;;;5016912;28;20504;-82
2023/04/07 02:16:44;;;;;;;55.28;27.77;;;7.00;99.90;;;;;;5034425;28;20041;-82
2023/04/07 02:19:10;;;;;;;54.30;27.90;;;7.10;99.90;;;;;;5033455;28;20041;-81
2023/04/07 02:21:36;;;;;;;52.60;26.38;;;7.00;99.90;;;;;;5016489;28;20041;-82
2023/04/07 02:24:05;;;;;;;54.83;25.95;;;7.10;99.90;;;;;;5016769;28;20054;-82
2023/04/07 02:26:35;;;;;;;55.08;28.13;;;7.00;99.90;;;;;;5034335;28;20042;-82
2023/04/07 02:29:01;;;;;;;58.20;28.58;;;7.00;99.90;;;;;;5034190;28;20045;-82
2023/04/07 02:31:27;;;;;;;55.58;27.35;;;7.00;99.90;;;;;;5034166;28;20522;-82
2023/04/07 02:33:52;;;;;;;54.50;28.30;;;7.10;99.90;;;;;;5016534;28;20049;-82
2023/04/07 02:36:18;;;;;;;50.22;25.95;;;7.00;99.90;;;;;;5016520;28;20064;-82
2023/04/07 02:38:44;;;;;;;49.75;26.52;;;7.00;99.90;;;;;;5016371;28;20124;-82
2023/04/07 02:41:09;;;;;;;51.90;26.45;;;7.00;99.90;;;;;;5016604;28;20052;-82
2023/04/07 02:43:35;;;;;;;53.50;27.23;;;7.10;99.90;;;;;;5033938;28;20061;-82
2023/04/07 02:46:01;;;;;;;52.80;25.95;;;7.10;99.90;;;;;;5016311;28;20061;-82
2023/04/07 02:48:26;;;;;;;51.58;27.27;;;7.00;99.90;;;;;;5016160;28;20488;-82
2023/04/07 02:50:54;;;;;;;51.15;26.48;;;7.00;99.90;;;;;;5033512;28;20096;-82
2023/04/07 02:53:20;;;;;;;51.75;25.92;;;7.00;99.90;;;;;;5033879;28;20049;-82
2023/04/07 02:55:46;;;;;;;53.58;26.50;;;7.10;99.90;;;;;;5033729;28;20136;-82
2023/04/07 02:58:11;;;;;;;51.72;25.23;;;6.90;99.90;;;;;;5025313;28;20128;-82
2023/04/07 03:00:37;;;;;;;49.58;25.17;;;7.00;99.90;;;;;;5032525;28;20125;-82
2023/04/07 03:03:03;;;;;;;50.40;24.95;;;7.10;99.90;;;;;;5032306;28;20085;-82
2023/04/07 03:05:28;;;;;;;49.92;26.05;;;7.10;99.90;;;;;;5033748;28;20069;-82
2023/04/07 03:07:54;;;;;;;55.63;26.88;;;7.00;99.90;;;;;;5033578;28;20463;-83
2023/04/07 03:10:20;;;;;;;48.47;24.83;;;7.00;99.90;;;;;;5025988;28;20045;-83
2023/04/07 03:12:45;;;;;;;48.20;26.45;;;7.00;99.90;;;;;;5033673;28;20037;-82
2023/04/07 03:15:11;;;;;;;52.92;26.38;;;7.00;99.90;;;;;;5025271;28;20413;-82
2023/04/07 03:17:37;;;;;;;49.05;26.33;;;7.10;99.90;;;;;;5033591;28;20049;-82
2023/04/07 03:20:03;;;;;;;48.45;23.65;;;7.00;99.90;;;;;;5033425;28;20120;-82
2023/04/07 03:22:28;;;;;;;49.50;25.33;;;7.00;99.90;;;;;;5033804;28;20477;-82
2023/04/07 03:24:55;;;;;;;49.08;26.10;;;7.10;99.90;;;;;;5031017;28;20052;-82
2023/04/07 03:27:20;;;;;;;52.65;27.73;;;7.00;99.90;;;;;;5026663;28;20064;-82
2023/04/07 03:29:46;;;;;;;53.00;27.02;;;7.00;99.90;;;;;;5035281;28;20049;-82
2023/04/07 03:32:11;;;;;;;51.05;25.77;;;7.10;99.90;;;;;;5029062;28;20055;-82
2023/04/07 03:34:37;;;;;;;49.75;26.98;;;7.00;99.90;;;;;;5037344;28;20045;-82
2023/04/07 03:37:03;;;;;;;52.78;26.48;;;7.00;99.90;;;;;;5036029;28;20080;-82
2023/04/07 03:39:29;;;;;;;50.83;25.60;;;7.10;99.90;;;;;;5031346;28;20049;-82
2023/04/07 03:41:55;;;;;;;48.13;26.13;;;7.00;99.90;;;;;;5036280;28;20048;-82
2023/04/07 03:44:20;;;;;;;48.28;24.65;;;7.10;99.90;;;;;;5030244;28;20052;-82
2023/04/07 03:46:47;;;;;;;48.92;26.02;;;7.00;99.90;;;;;;5035956;28;20050;-82
2023/04/07 03:49:13;;;;;;;52.92;27.90;;;7.10;99.90;;;;;;5028589;28;20077;-82
2023/04/07 03:51:39;;;;;;;50.13;25.45;;;7.00;99.90;;;;;;5035593;28;20088;-82
2023/04/07 03:54:05;;;;;;;50.50;26.50;;;7.10;99.90;;;;;;5035812;28;20077;-82
2023/04/07 03:56:30;;;;;;;52.58;26.75;;;7.10;99.90;;;;;;5037094;28;20089;-82
2023/04/07 03:58:56;;;;;;;54.80;26.92;;;7.10;99.90;;;;;;5034529;28;20041;-82
2023/04/07 04:01:22;;;;;;;51.25;24.83;;;7.00;99.90;;;;;;5030068;28;20053;-82
2023/04/07 04:03:48;;;;;;;52.92;27.90;;;7.00;99.90;;;;;;5037007;28;20048;-82
2023/04/07 04:06:14;;;;;;;53.88;27.55;;;7.00;99.90;;;;;;5036775;28;20439;-81
2023/04/07 04:08:39;;;;;;;56.20;28.73;;;7.00;99.90;;;;;;5036726;28;20478;-82
2023/04/07 04:11:05;;;;;;;55.58;27.95;;;7.00;99.90;;;;;;5035584;28;20049;-82
2023/04/07 04:13:31;;;;;;;52.03;27.75;;;7.10;99.90;;;;;;5036823;28;20057;-82
2023/04/07 04:15:57;;;;;;;56.53;30.20;;;7.10;99.90;;;;;;5036690;28;20041;-82
2023/04/07 04:18:22;;;;;;;58.90;31.67;;;7.10;99.90;;;;;;5029395;28;20095;-82
2023/04/07 04:20:48;;;;;;;62.47;32.58;;;7.00;99.90;;;;;;5035267;28;20092;-82
2023/04/07 04:23:14;;;;;;;61.60;29.75;;;7.00;99.90;;;;;;5036527;28;20098;-82
2023/04/07 04:25:40;;;;;;;56.60;29.48;;;7.10;99.90;;;;;;5031855;28;20496;-82
2023/04/07 04:28:06;;;;;;;59.50;29.65;;;7.10;99.90;;;;;;5035551;28;20049;-82
2023/04/07 04:30:32;;;;;;;60.17;30.60;;;7.00;99.90;;;;;;5035115;28;20517;-82
2023/04/07 04:32:57;;;;;;;59.97;29.35;;;7.00;99.90;;;;;;5035003;28;20056;-82
2023/04/07 04:35:23;;;;;;;58.53;29.58;;;7.00;99.90;;;;;;5029233;28;20534;-83
2023/04/07 04:37:49;;;;;;;58.22;26.83;;;7.00;99.90;;;;;;5035260;28;20053;-82
2023/04/07 04:40:14;;;;;;;57.53;28.88;;;7.00;99.90;;;;;;5036335;28;20068;-82
2023/04/07 04:42:40;;;;;;;53.85;27.58;;;7.00;99.90;;;;;;5035687;28;20044;-82
2023/04/07 04:45:06;;;;;;;55.50;28.23;;;7.00;99.90;;;;;;5036200;28;20045;-82
2023/04/07 04:47:32;;;;;;;58.03;29.90;;;7.00;99.90;;;;;;5036124;28;20037;-82
2023/04/07 04:49:58;;;;;;;55.88;30.35;;;7.00;99.90;;;;;;5036061;28;20043;-82
2023/04/07 04:52:23;;;;;;;54.25;27.83;;;7.00;99.90;;;;;;5035782;28;20132;-82
2023/04/07 04:54:49;;;;;;;56.83;29.30;;;6.90;99.90;;;;;;5036086;28;20041;-82
2023/04/07 04:57:15;;;;;;;50.97;26.40;;;6.90;99.90;;;;;;5027817;28;20053;-82
2023/04/07 04:59:41;;;;;;;51.50;27.52;;;7.00;99.90;;;;;;5035891;28;20099;-82
2023/04/07 05:02:07;;;;;;;58.42;29.83;;;7.00;99.90;;;;;;5026732;28;20057;-82
2023/04/07 05:04:32;;;;;;;57.08;29.50;;;7.00;99.90;;;;;;5034514;28;20057;-82
2023/04/07 05:06:58;;;;;;;57.53;30.23;;;6.90;99.90;;;;;;5035815;28;20037;-82
2023/04/07 05:09:24;;;;;;;59.40;29.17;;;6.80;99.90;;;;;;5028960;28;20049;-82
2023/04/07 05:11:49;;;;;;;60.63;29.88;;;6.90;99.90;;;;;;5034355;28;20041;-82
2023/04/07 05:14:15;;;;;;;58.45;30.02;;;6.80;99.90;;;;;;5035486;28;20103;-82
2023/04/07 05:16:41;;;;;;;54.47;27.50;;;6.90;99.90;;;;;;5030448;28;20404;-82
2023/04/07 05:19:06;;;;;;;53.75;28.23;;;7.00;99.90;;;;;;5025251;28;20053;-82
2023/04/07 05:21:32;;;;;;;54.25;27.90;;;6.90;99.90;;;;;;5034088;28;20619;-82
2023/04/07 05:23:57;;;;;;;55.97;29.80;;;6.90;99.90;;;;;;5034041;28;20049;-82
2023/04/07 05:26:23;;;;;;;59.95;29.27;;;6.90;99.90;;;;;;5035425;28;20038;-82
2023/04/07 05:28:49;;;;;;;52.47;28.50;;;6.90;99.90;;;;;;5032013;28;20049;-81
2023/04/07 05:31:15;;;;;;;59.65;30.33;;;6.90;99.90;;;;;;5026939;28;20084;-81
2023/04/07 05:33:41;;;;;;;50.58;29.00;;;6.80;99.90;;;;;;5033837;28;20073;-82
2023/04/07 05:36:06;;;;;;;51.83;26.83;;;6.90;99.90;;;;;;5034965;28;20057;-82
2023/04/07 05:38:32;;;;;;;53.30;26.85;;;6.90;99.90;;;;;;5029381;28;20052;-82
2023/04/07 05:40:58;;;;;;;50.95;27.05;;;6.90;99.90;;;;;;5033878;28;20465;-82
2023/04/07 05:43:23;;;;;;;53.47;26.50;;;6.90;99.90;;;;;;5027816;28;20052;-82
2023/04/07 05:45:49;;;;;;;49.75;26.83;;;6.90;99.90;;;;;;5033557;28;20041;-82
2023/04/07 05:48:15;;;;;;;49.70;26.75;;;7.00;99.90;;;;;;5026742;28;20052;-82
2023/04/07 05:50:41;;;;;;;51.55;26.63;;;6.90;99.90;;;;;;5033144;28;20049;-82
2023/04/07 05:53:06;;;;;;;51.47;27.77;;;6.90;99.90;;;;;;5012730;28;20137;-82
2023/04/07 05:55:32;;;;;;;46.25;27.08;;;6.90;99.90;;;;;;5030212;28;20072;-82
2023/04/07 05:57:58;;;;;;;48.95;26.48;;;6.90;99.90;;;;;;5016883;28;20080;-82
2023/04/07 06:00:24;;;;;;;48.58;25.42;;;7.00;99.90;;;;;;5017015;28;20037;-82
2023/04/07 06:02:50;;;;;;;47.17;25.52;;;6.90;99.90;;;;;;5017012;28;20401;-82
2023/04/07 06:05:16;;;;;;;53.08;27.00;;;6.90;99.90;;;;;;5034682;28;20469;-81
2023/04/07 06:07:41;;;;;;;47.03;26.52;;;7.00;99.90;;;;;;5016692;28;20140;-82
2023/04/07 06:10:07;;;;;;;46.33;25.10;;;6.90;99.90;;;;;;5016980;28;20042;-82
2023/04/07 06:12:33;;;;;;;47.80;25.08;;;6.90;99.90;;;;;;5016609;28;20045;-82
2023/04/07 06:14:58;;;;;;;48.85;25.13;;;7.00;99.90;;;;;;5034186;28;20045;-81
2023/04/07 06:17:24;;;;;;;51.05;26.52;;;7.00;99.90;;;;;;5034441;28;20542;-82
2023/04/07 06:19:50;;;;;;;48.63;26.50;;;7.00;99.90;;;;;;5034190;28;20053;-83
2023/04/07 06:22:15;;;;;;;45.75;26.73;;;7.00;99.90;;;;;;5034091;28;20132;-83
2023/04/07 06:24:41;;;;;;;45.58;26.50;;;7.00;99.90;;;;;;5034194;28;20041;-83
2023/04/07 06:27:07;;;;;;;49.67;28.10;;;7.00;99.90;;;;;;5016567;28;20101;-83
2023/04/07 06:29:33;;;;;;;50.08;27.40;;;7.00;99.90;;;;;;5034049;28;20389;-83
2023/04/07 06:31:59;;;;;;;50.15;26.05;;;6.90;99.90;;;;;;5016223;28;20482;-82
2023/04/07 06:34:25;;;;;;;48.75;28.00;;;7.10;99.90;;;;;;5016599;28;20045;-83
2023/04/07 06:36:51;;;;;;;53.28;28.60;;;7.00;99.90;;;;;;5034023;28;20455;-83
2023/04/07 06:39:17;;;;;;;50.25;27.55;;;7.10;99.90;;;;;;5033950;28;20091;-83
2023/04/07 06:41:42;;;;;;;43.88;24.83;;;7.10;99.90;;;;;;5016038;28;20092;-81
2023/04/07 06:44:10;;;;;;;44.08;24.88;;;7.10;99.90;;;;;;5016352;28;20030;-81
2023/04/07 06:46:35;;;;;;;49.72;24.90;;;7.00;99.90;;;;;;5016108;28;20057;-81
2023/04/07 06:49:02;;;;;;;46.53;26.55;;;7.10;99.90;;;;;;5033705;28;20068;-81
2023/04/07 06:51:28;;;;;;;48.88;26.65;;;7.10;99.90;;;;;;5033463;28;20137;-84
2023/04/07 06:53:56;;;;;;;46.15;25.98;;;7.10;99.90;;;;;;5033665;28;20049;-84
2023/04/07 06:56:22;;;;;;;42.03;25.23;;;7.20;99.90;;;;;;5016092;28;20056;-83
2023/04/07 06:58:48;;;;;;;45.75;25.98;;;7.20;99.90;;;;;;5033603;28;20056;-83
2023/04/07 07:01:14;;;;;;;47.83;24.83;;;7.20;99.90;;;;;;5032078;28;20044;-88
2023/04/07 07:03:40;;;;;;;41.38;22.88;;;7.20;99.90;;;;;;4999961;28;20050;-84
2023/04/07 07:06:06;;;;;;;43.70;24.10;;;7.20;99.90;;;;;;4993015;28;20050;-82
2023/04/07 07:08:31;;;;;;;44.83;26.50;;;7.30;99.90;;;;;;5008917;28;20435;-82
2023/04/07 07:10:57;;;;;;;43.42;24.50;;;7.30;99.90;;;;;;4995833;28;20075;-83
2023/04/07 07:13:27;;;;;;;43.88;24.55;;;7.30;99.90;;;;;;5013499;28;20052;-82
2023/04/07 07:15:53;;;;;;;43.90;24.05;;;7.20;99.90;;;;;;5013512;28;20045;-83
2023/04/07 07:18:19;;;;;;;43.50;23.95;;;7.40;99.90;;;;;;5013306;28;20546;-83
2023/04/07 07:20:45;;;;;;;40.92;23.75;;;7.30;99.90;;;;;;4996194;28;20117;-84
2023/04/07 07:23:11;;;;;;;41.08;24.05;;;7.40;99.90;;;;;;4995653;28;20505;-83
2023/04/07 07:25:37;;;;;;;45.97;24.05;;;7.40;99.90;;;;;;4996035;28;20050;-83
2023/04/07 07:28:03;;;;;;;45.22;24.98;;;7.40;99.90;;;;;;4995880;28;20141;-82
2023/04/07 07:30:28;;;;;;;42.78;23.85;;;7.40;99.90;;;;;;4995904;28;20133;-82
2023/04/07 07:32:55;;;;;;;39.92;23.92;;;7.30;99.90;;;;;;4995678;28;20034;-89
2023/04/07 07:35:22;;;;;;;40.55;24.35;;;7.50;99.90;;;;;;5013354;28;20057;-87
2023/04/07 07:37:47;;;;;;;41.92;25.20;;;7.50;99.90;;;;;;4995790;28;20068;-88
2023/04/07 07:40:14;;;;;;;45.30;25.27;;;7.50;99.90;;;;;;5013435;28;20405;-84
2023/04/07 07:42:40;;;;;;;39.97;24.27;;;7.50;99.90;;;;;;5013324;28;20050;-82
2023/04/07 07:45:09;;;;;;;42.55;25.35;;;7.60;99.90;;;;;;4995584;28;20064;-85
2023/04/07 07:47:36;;;;;;;42.40;25.02;;;7.50;99.90;;;;;;4995871;28;20057;-87
2023/04/07 07:50:03;;;;;;;41.28;23.88;;;7.60;99.90;;;;;;4995438;28;20117;-87
2023/04/07 07:52:29;;;;;;;41.20;26.02;;;7.60;99.90;;;;;;4995299;28;20060;-87
2023/04/07 07:54:55;;;;;;;44.40;25.30;;;7.70;99.90;;;;;;4995797;28;20050;-86
2023/04/07 07:57:20;;;;;;;41.30;24.60;;;7.70;99.90;;;;;;4995598;28;20417;-87
2023/04/07 07:59:46;;;;;;;41.08;23.67;;;7.80;99.90;;;;;;4995502;28;20140;-87
2023/04/07 08:02:12;;;;;;;39.13;23.42;;;7.90;99.90;;;;;;4995453;28;20050;-86
2023/04/07 08:04:38;;;;;;;42.90;24.92;;;8.00;99.90;;;;;;4995760;28;20088;-86
2023/04/07 08:07:03;;;;;;;38.72;24.67;;;8.10;99.90;;;;;;4995551;28;20073;-88
2023/04/07 08:09:31;;;;;;;40.22;24.15;;;8.10;99.90;;;;;;4995419;28;20519;-88
2023/04/07 08:11:57;;;;;;;39.63;23.30;;;8.20;99.90;;;;;;4995333;28;20409;-87
2023/04/07 08:14:22;;;;;;;38.92;23.08;;;8.30;99.90;;;;;;4995565;28;20042;-87
2023/04/07 08:16:48;;;;;;;35.10;21.85;;;8.30;99.90;;;;;;4997358;28;20448;-86
2023/04/07 08:19:14;;;;;;;34.88;21.88;;;8.30;99.90;;;;;;5016640;28;20050;-87
2023/04/07 08:21:40;;;;;;;36.67;21.15;;;8.30;99.90;;;;;;4998777;28;20049;-87
2023/04/07 08:24:09;;;;;;;35.38;22.17;;;8.40;99.90;;;;;;4998852;28;20563;-87
2023/04/07 08:26:34;;;;;;;33.22;20.52;;;8.50;99.90;;;;;;4998964;28;20068;-86
2023/04/07 08:29:00;;;;;;;31.58;19.88;;;8.50;99.90;;;;;;4998881;28;20045;-86
2023/04/07 08:31:26;;;;;;;36.35;20.58;;;8.50;99.90;;;;;;4998484;28;20045;-85
2023/04/07 08:33:57;;;;;;;35.63;20.80;;;8.50;99.90;;;;;;4998847;28;20068;-85
2023/04/07 08:36:23;;;;;;;34.25;21.88;;;8.50;99.90;;;;;;4998922;28;20061;-85
2023/04/07 08:38:49;;;;;;;38.35;22.17;;;8.50;99.90;;;;;;4998595;28;20045;-85
2023/04/07 08:41:27;;;;;;;39.17;23.75;;;8.50;99.90;;;;;;4998558;28;20046;-85
2023/04/07 08:43:56;;;;;;;39.00;23.80;;;8.60;99.90;;;;;;4998843;28;20042;-86
2023/04/07 08:46:24;;;;;;;37.15;24.35;;;8.70;99.90;;;;;;4998395;28;20057;-85
2023/04/07 08:48:51;;;;;;;39.92;23.88;;;8.60;99.90;;;;;;4998240;28;20536;-85
2023/04/07 08:51:26;;;;;;;42.58;24.63;;;8.60;99.90;;;;;;5015638;28;20519;-85
2023/04/07 08:53:56;;;;;;;38.83;22.63;;;8.60;99.90;;;;;;5016150;28;20057;-84
2023/04/07 08:56:22;;;;;;;41.03;22.75;;;8.70;99.90;;;;;;5015858;28;20502;-85
2023/04/07 08:58:48;;;;;;;44.47;25.02;;;8.80;99.90;;;;;;4998434;28;20056;-84
2023/04/07 09:01:15;;;;;;;42.35;24.52;;;8.80;99.90;;;;;;4997971;28;20128;-86
2023/04/07 09:03:43;;;;;;;44.50;25.83;;;8.80;99.90;;;;;;4998167;28;20056;-85
2023/04/07 09:06:10;;;;;;;47.20;26.23;;;8.80;99.90;;;;;;5015799;28;20037;-85
2023/04/07 09:08:36;;;;;;;49.63;26.17;;;8.80;99.90;;;;;;4998287;28;20042;-81
2023/04/07 09:11:01;;;;;;;45.47;25.17;;;8.90;99.90;;;;;;4998022;28;20041;-85
2023/04/07 09:13:27;;;;;;;44.40;26.10;;;9.00;99.90;;;;;;5015546;28;20448;-85
2023/04/07 09:15:53;;;;;;;40.13;25.63;;;9.10;99.90;;;;;;5033521;28;20056;-84
2023/04/07 09:18:19;;;;;;;47.30;26.45;;;9.20;99.90;;;;;;5034276;28;20049;-85
2023/04/07 09:20:55;;;;;;;40.17;24.63;;;9.40;99.90;;;;;;5033732;28;20049;-85
2023/04/07 09:23:33;;;;;;;46.05;26.33;;;9.40;99.90;;;;;;5033845;28;20081;-85
2023/04/07 09:26:00;;;;;;;38.05;23.15;;;9.50;99.90;;;;;;5035046;28;20045;-85
2023/04/07 09:28:47;;;;;;;42.35;24.85;;;9.70;99.90;;;;;;5034781;28;20132;-86
2023/04/07 09:31:13;;;;;;;40.72;25.98;;;9.90;99.90;;;;;;5034787;28;20440;-85
2023/04/07 09:33:39;;;;;;;44.00;25.50;;;10.00;99.90;;;;;;5033875;28;20052;-85
2023/04/07 09:36:06;;;;;;;39.33;22.90;;;10.10;99.90;;;;;;5033629;28;20053;-85
2023/04/07 09:38:33;;;;;;;38.70;23.55;;;10.30;99.90;;;;;;5033774;28;20041;-85
2023/04/07 09:41:09;;;;;;;37.80;23.42;;;10.40;99.90;;;;;;5031407;28;20106;-84
2023/04/07 09:43:37;;;;;;;37.72;23.40;;;10.40;99.90;;;;;;5036768;28;20049;-84
2023/04/07 09:46:13;;;;;;;34.55;23.00;;;10.40;99.90;;;;;;5037009;28;20049;-84
2023/04/07 09:48:40;;;;;;;39.88;24.23;;;10.40;99.90;;;;;;5036772;28;20049;-83
2023/04/07 09:51:16;;;;;;;38.92;24.35;;;10.40;99.90;;;;;;5036379;28;20052;-85
2023/04/07 09:53:57;;;;;;;37.65;23.90;;;10.40;99.90;;;;;;5054426;28;20053;-84
2023/04/07 09:56:22;;;;;;;37.75;24.48;;;10.40;99.90;;;;;;5054494;28;20048;-84
2023/04/07 09:58:52;;;;;;;41.85;25.20;;;10.30;99.90;;;;;;5032456;28;20087;-84
2023/04/07 10:01:20;;;;;;;37.70;24.98;;;10.60;99.90;;;;;;5033540;28;20082;-85
2023/04/07 10:03:49;;;;;;;37.20;24.23;;;10.70;99.90;;;;;;5054200;28;20059;-85
2023/04/07 10:06:15;;;;;;;38.90;23.85;;;10.70;99.90;;;;;;5036277;28;20509;-85
2023/04/07 10:08:42;;;;;;;37.83;24.17;;;10.70;99.90;;;;;;5036275;28;20134;-85
2023/04/07 10:11:08;;;;;;;38.03;23.95;;;10.60;99.90;;;;;;5054364;28;20044;-86
2023/04/07 10:13:36;;;;;;;34.78;21.48;;;10.70;99.90;;;;;;5036436;28;20214;-85
2023/04/07 10:16:04;;;;;;;32.38;21.60;;;10.70;99.90;;;;;;5035014;28;20053;-87
2023/04/07 10:18:32;;;;;;;29.65;19.83;;;10.60;99.90;;;;;;5032777;28;20048;-85
2023/04/07 10:21:00;;;;;;;29.48;18.83;;;10.70;99.90;;;;;;5035195;28;20084;-84
2023/04/07 10:23:51;;;;;;;30.33;19.65;;;10.70;99.90;;;;;;5036406;28;20076;-84
2023/04/07 10:26:22;;;;;;;29.02;18.92;;;10.70;99.90;;;;;;5036311;28;20059;-85
2023/04/07 10:28:52;;;;;;;31.38;19.08;;;10.70;99.90;;;;;;5054063;28;20040;-84
2023/04/07 10:31:19;;;;;;;29.92;18.40;;;10.70;99.90;;;;;;5031403;28;20052;-87
2023/04/07 10:33:50;;;;;;;31.02;18.60;;;10.80;99.90;;;;;;5009313;28;20053;-86
2023/04/07 10:36:19;;;;;;;28.55;18.45;;;10.90;99.90;;;;;;4998569;28;20057;-82
2023/04/07 10:39:11;;;;;;;27.75;18.92;;;11.10;99.90;;;;;;4996151;28;20049;-83
2023/04/07 10:41:38;;;;;;;28.45;18.88;;;10.90;99.90;;;;;;5011001;28;20042;-85
2023/04/07 10:44:05;;;;;;;25.40;17.25;;;10.90;99.90;;;;;;4996313;28;20128;-88
2023/04/07 10:47:00;;;;;;;26.95;19.05;;;10.80;99.90;;;;;;4996501;28;20045;-86
2023/04/07 10:49:26;;;;;;;26.63;17.73;;;10.80;99.90;;;;;;4983462;28;20061;-88
2023/04/07 10:52:12;;;;;;;25.90;17.40;;;10.70;99.90;;;;;;4995916;28;20057;-89
2023/04/07 10:54:38;;;;;;;30.92;17.40;;;10.50;99.90;;;;;;4986056;28;20523;-86
2023/04/07 10:57:10;;;;;;;24.48;16.42;;;10.50;99.90;;;;;;4996049;28;20122;-86
2023/04/07 10:59:37;;;;;;;26.80;17.25;;;10.50;99.90;;;;;;4996087;28;20084;-85
2023/04/07 11:02:16;;;;;;;25.30;16.60;;;10.50;99.90;;;;;;4995928;28;20147;-81
2023/04/07 11:04:44;;;;;;;25.35;16.10;;;10.50;99.90;;;;;;5013836;28;20049;-86
2023/04/07 11:07:13;;;;;;;22.33;15.30;;;10.50;99.90;;;;;;5013590;28;20062;-87
2023/04/07 11:09:42;;;;;;;22.02;15.38;;;10.60;99.90;;;;;;4995952;28;20041;-88
2023/04/07 11:12:08;;;;;;;22.17;14.95;;;10.60;99.90;;;;;;5013444;28;20486;-85
2023/04/07 11:14:36;;;;;;;22.63;15.10;;;10.70;99.90;;;;;;5033550;28;20045;-85
2023/04/07 11:17:03;;;;;;;22.13;15.73;;;10.80;99.90;;;;;;5031626;28;20049;-87
2023/04/07 11:19:30;;;;;;;27.00;18.05;;;11.00;99.90;;;;;;5033195;28;20053;-82
2023/04/07 11:22:15;;;;;;;23.38;16.02;;;11.00;99.90;;;;;;5033215;28;20042;-83
2023/04/07 11:24:42;;;;;;;23.58;16.75;;;11.10;99.90;;;;;;5032153;28;20531;-89
2023/04/07 11:27:14;;;;;;;25.77;17.38;;;11.00;99.90;;;;;;5031999;28;20081;-86
2023/04/07 11:29:40;;;;;;;23.98;16.15;;;11.10;99.90;;;;;;5032167;28;20485;-87
2023/04/07 11:32:06;;;;;;;25.10;16.52;;;11.10;99.90;;;;;;5031665;28;20049;-90
2023/04/07 11:34:33;;;;;;;23.35;16.30;;;11.20;99.90;;;;;;5031852;28;20057;-87
2023/04/07 11:37:25;;;;;;;27.90;18.10;;;11.20;99.90;;;;;;5031763;28;20049;-86
2023/04/07 11:39:55;;;;;;;26.50;16.98;;;11.30;99.90;;;;;;5031298;28;20068;-86
2023/04/07 11:42:35;;;;;;;24.83;16.08;;;11.40;99.90;;;;;;5021985;28;20052;-88
2023/04/07 11:45:00;;;;;;;21.90;15.98;;;11.50;99.90;;;;;;5013271;28;20050;-89
2023/04/07 11:47:37;;;;;;;22.27;15.52;;;11.40;99.90;;;;;;5015149;28;20124;-87
2023/04/07 11:50:03;;;;;;;24.20;16.70;;;11.40;99.90;;;;;;5015484;28;20111;-87
2023/04/07 11:52:48;;;;;;;22.17;15.73;;;11.50;99.90;;;;;;5017709;28;20412;-87
2023/04/07 11:55:23;;;;;;;22.63;14.70;;;11.50;99.90;;;;;;5019462;28;20395;-88
2023/04/07 11:57:50;;;;;;;27.15;16.52;;;11.60;99.90;;;;;;5018912;28;20049;-88
2023/04/07 12:00:17;;;;;;;28.15;16.42;;;11.70;99.90;;;;;;5018946;28;20051;-86
2023/04/07 12:02:43;;;;;;;23.38;15.05;;;11.90;99.90;;;;;;5018855;28;20411;-86
2023/04/07 12:05:09;;;;;;;24.20;15.73;;;12.10;99.90;;;;;;5018932;28;20050;-86
2023/04/07 12:07:40;;;;;;;23.40;15.15;;;12.20;99.90;;;;;;5021665;28;20048;-89
2023/04/07 12:10:19;;;;;;;23.13;15.63;;;12.20;99.90;;;;;;5025822;28;20052;-86
2023/04/07 12:12:45;;;;;;;21.25;14.80;;;12.10;99.90;;;;;;5018541;28;20123;-87
2023/04/07 12:15:12;;;;;;;21.85;14.98;;;12.10;99.90;;;;;;5018699;28;20041;-86
2023/04/07 12:17:43;;;;;;;23.17;14.32;;;12.20;99.90;;;;;;5018605;28;20455;-86
2023/04/07 12:20:09;;;;;;;24.10;16.45;;;12.10;99.90;;;;;;5018698;28;20128;-86
2023/04/07 12:22:34;;;;;;;22.00;14.95;;;12.20;99.90;;;;;;5018908;28;20245;-86
2023/04/07 12:25:00;;;;;;;21.90;14.43;;;12.20;99.90;;;;;;5018749;28;20128;-88
2023/04/07 12:27:26;;;;;;;23.92;14.55;;;12.10;99.90;;;;;;5018493;28;20095;-86
2023/04/07 12:29:52;;;;;;;22.52;14.90;;;12.30;99.90;;;;;;5018381;28;20521;-88
2023/04/07 12:32:18;;;;;;;23.55;14.85;;;12.40;99.90;;;;;;5018239;28;20132;-85
2023/04/07 12:34:44;;;;;;;20.27;14.57;;;12.40;99.90;;;;;;5018282;28;20055;-84
2023/04/07 12:37:09;;;;;;;21.38;14.43;;;12.50;99.90;;;;;;5036134;28;20596;-84